Crown Of Scandinavia — OXRA6 — position and weather

sailwx.info

Track history (hours):
 
Tides and Currents Weather Stations Pressure Air Temp Water Temp Dewpoint Dewpoint Depression Visibility Wind Speed Wind Dir Waves Ship Positions

Crown Of Scandinavia

Last reported at 2020-Aug-09 05:30 UTC. Time now 2020-Aug-09 05:47 UTC.
Position N 59°37' E 010°38'.

Length 171 m; draft 6.3 m.

Type: Passenger vessel. MMSI: 219592000.

Date/timePositionNaut miles runAvg speedWind from/ knotsBaromVisibWave heightAir tempDewpointWater temp
2020-Aug-09 05:30N 59°37' E 010°38'1616.2
2020-Aug-09 04:30N 59°21' E 010°36'8717.5
2020-Aug-08 23:30N 57°54' E 010°52'1716.8
2020-Aug-08 22:31N 57°37' E 010°49'1414.0
2020-Aug-08 21:30N 57°26' E 010°34'4711.8
2020-Aug-08 17:30N 57°11' E 011°56'5517.5
2020-Aug-08 14:21N 56°18' E 012°23'2417.6
2020-Aug-08 13:01N 55°57' E 012°43'1510.2
2020-Aug-08 11:29N 55°42' E 012°36'0 0.0
2020-Aug-08 10:59N 55°42' E 012°36'0 0.0
2020-Aug-08 09:26N 55°42' E 012°36'0 0.0
2020-Aug-08 08:53N 55°42' E 012°36'0 0.0
2020-Aug-08 07:56N 55°42' E 012°36'21 7.2
2020-Aug-08 05:00N 56°03' E 012°39'1414.1
2020-Aug-08 04:00N 56°13' E 012°20'714.4
2020-Aug-08 03:30N 56°18' E 012°11'714.4
2020-Aug-08 03:00N 56°24' E 012°03'2814.0
2020-Aug-08 01:00N 56°50' E 011°49'1414.4
2020-Aug-08 00:01N 57°04' E 011°40'2814.2
2020-Aug-07 22:00N 57°30' E 011°19'2510.0
2020-Aug-07 19:30N 57°26' E 010°33'2814.1
2020-Aug-07 17:31N 57°53' E 010°47'1817.6
2020-Aug-07 16:31N 58°11' E 010°45'4216.7
2020-Aug-07 14:00N 58°52' E 010°41'1716.8
2020-Aug-07 13:00N 59°09' E 010°38'917.7
2020-Aug-07 12:31N 59°18' E 010°36'3316.3
2020-Aug-07 10:31N 59°51' E 010°36'510.7
2020-Aug-07 10:00N 59°54' E 010°45'4 1.1
2020-Aug-07 06:30N 59°52' E 010°38'2315.2
2020-Aug-07 05:00N 59°29' E 010°35'815.7
2020-Aug-07 04:30N 59°21' E 010°35'815.8
2020-Aug-07 04:00N 59°14' E 010°38'816.3
2020-Aug-07 03:30N 59°06' E 010°40'4317.2
2020-Aug-07 01:00N 58°23' E 010°51'2617.4
2020-Aug-06 23:30N 57°57' E 010°53'3416.8
2020-Aug-06 21:31N 57°25' E 010°37'7 4.6
2020-Aug-06 20:00N 57°26' E 010°49'10015.4
2020-Aug-06 13:30N 56°05' E 012°37'15 2.1
2020-Aug-06 06:00N 55°50' E 012°42'713.1
2020-Aug-06 05:31N 55°56' E 012°39'1313.4
2020-Aug-06 04:31N 56°08' E 012°29'715.0
2020-Aug-06 04:01N 56°13' E 012°18'2713.5
2020-Aug-06 02:01N 56°37' E 011°55'714.3
2020-Aug-06 01:31N 56°44' E 011°53'4414.6
2020-Aug-05 22:31N 57°24' E 011°24'2811.0
2020-Aug-05 20:00N 57°26' E 010°33'2 4.1
2020-Aug-05 19:30N 57°25' E 010°36'3215.9
2020-Aug-05 17:30N 57°56' E 010°47'5916.7
2020-Aug-05 14:00N 58°54' E 010°40'1716.7
2020-Aug-05 13:00N 59°11' E 010°38'816.5
2020-Aug-05 12:30N 59°19' E 010°35'3511.6
2020-Aug-05 09:28N 59°54' E 010°45'3 1.0
2020-Aug-05 06:31N 59°53' E 010°40'3115.3
2020-Aug-05 04:30N 59°22' E 010°35'7117.9
2020-Aug-05 00:30N 58°11' E 010°53'3618.3
2020-Aug-04 22:31N 57°35' E 010°48'12 8.0
2020-Aug-04 21:00N 57°26' E 010°33'1313.3
2020-Aug-04 20:01N 57°29' E 010°57'12013.3
2020-Aug-04 11:00N 55°42' E 012°36'0 0.0
2020-Aug-04 09:30N 55°42' E 012°36'0 0.0
2020-Aug-04 08:54N 55°42' E 012°36'0 0.0
2020-Aug-04 08:24N 55°42' E 012°36'21 6.2
2020-Aug-04 05:01N 56°03' E 012°39'1515.1
2020-Aug-04 04:00N 56°13' E 012°18'7714.0
2020-Aug-03 22:31N 57°24' E 011°24'35 7.1
2020-Aug-03 17:30N 57°54' E 010°48'1818.0
2020-Aug-03 16:30N 58°12' E 010°46'1717.2
2020-Aug-03 15:30N 58°29' E 010°44'4116.4
2020-Aug-03 13:00N 59°10' E 010°38'3216.2
2020-Aug-03 11:00N 59°42' E 010°35'1312.9
2020-Aug-03 10:00N 59°54' E 010°45'0 0.3
2020-Aug-03 09:30N 59°54' E 010°45'0 0.0
2020-Aug-03 09:00N 59°54' E 010°45'0 0.0
2020-Aug-03 07:00N 59°54' E 010°45'1711.3
2020-Aug-03 05:31N 59°38' E 010°38'1615.7
2020-Aug-03 04:31N 59°22' E 010°35'1716.9
2020-Aug-03 03:31N 59°05' E 010°41'6318.0
2020-Aug-03 00:01N 58°03' E 010°57'58 8.9
2020-Aug-02 17:30N 57°14' E 011°55'7218.0
2020-Aug-02 13:30N 56°05' E 012°36'917.8
2020-Aug-02 13:00N 55°57' E 012°43'917.3
2020-Aug-02 12:30N 55°49' E 012°44'8 3.9
2020-Aug-02 10:27N 55°42' E 012°36'0 0.0
2020-Aug-02 10:00N 55°42' E 012°36'2 0.5
2020-Aug-02 06:31N 55°43' E 012°39'1812.1
2020-Aug-02 05:00N 56°01' E 012°40'612.5
2020-Aug-02 04:31N 56°06' E 012°33'713.2
2020-Aug-02 04:00N 56°11' E 012°24'2013.7
2020-Aug-02 02:31N 56°26' E 011°59'914.2
2020-Aug-02 01:55N 56°34' E 011°56'5014.6
2020-Aug-01 22:30N 57°21' E 011°26'60 9.2
2020-Aug-01 16:01N 58°18' E 010°51'3417.0
2020-Aug-01 14:01N 58°52' E 010°43'4417.4
2020-Aug-01 11:31N 59°35' E 010°38'19 9.4
2020-Aug-01 09:28N 59°54' E 010°45'17 4.4
2020-Aug-01 05:30N 59°37' E 010°38'4016.2
2020-Aug-01 03:00N 58°57' E 010°42'816.7
2020-Aug-01 02:30N 58°48' E 010°44'3718.5
2020-Aug-01 00:30N 58°12' E 010°53'917.7
2020-Aug-01 00:00N 58°03' E 010°52'3915.4
2020-Jul-31 21:30N 57°26' E 010°34'4111.6
2020-Jul-31 18:00N 57°18' E 011°47'9916.5
2020-Jul-31 12:00N 55°42' E 012°36'0 0.1
2020-Jul-31 10:00N 55°42' E 012°36'2 0.6
2020-Jul-31 06:30N 55°43' E 012°39'612.7
2020-Jul-31 06:00N 55°49' E 012°42'1312.9
2020-Jul-31 05:01N 56°02' E 012°39'1514.5
2020-Jul-31 04:00N 56°12' E 012°21'4913.9
2020-Jul-31 00:28N 56°58' E 011°44'2915.0
2020-Jul-30 22:30N 57°25' E 011°24'1211.9
2020-Jul-30 21:30N 57°28' E 011°03'1514.5
2020-Jul-30 20:30N 57°24' E 010°37'1 1.1
2020-Jul-30 19:29N 57°25' E 010°37'10016.7
2020-Jul-30 13:31N 59°05' E 010°38'4816.0
2020-Jul-30 10:30N 59°53' E 010°40'2 1.5
2020-Jul-30 08:58N 59°54' E 010°45'0 0.0
2020-Jul-30 08:28N 59°54' E 010°45'12 4.8
2020-Jul-30 06:00N 59°43' E 010°35'  
Track history (hours):
 
Tides and Currents Weather Stations Pressure Air Temp Water Temp Dewpoint Dewpoint Depression Visibility Wind Speed Wind Dir Waves Ship Positions

Crown Of Scandinavia

Last reported at 2020-Aug-09 05:30 UTC. Time now 2020-Aug-09 05:47 UTC.
Position N 59°37' E 010°38'.

Length 171 m; draft 6.3 m.

Type: Passenger vessel. MMSI: 219592000.

Date/timePositionNaut miles runAvg speedWind from/ knotsBaromVisibWave heightAir tempDewpointWater temp
2020-Aug-09 05:30N 59°37' E 010°38'1616.2
2020-Aug-09 04:30N 59°21' E 010°36'8717.5
2020-Aug-08 23:30N 57°54' E 010°52'1716.8
2020-Aug-08 22:31N 57°37' E 010°49'1414.0
2020-Aug-08 21:30N 57°26' E 010°34'4711.8
2020-Aug-08 17:30N 57°11' E 011°56'5517.5
2020-Aug-08 14:21N 56°18' E 012°23'2417.6
2020-Aug-08 13:01N 55°57' E 012°43'1510.2
2020-Aug-08 11:29N 55°42' E 012°36'0 0.0
2020-Aug-08 10:59N 55°42' E 012°36'0 0.0
2020-Aug-08 09:26N 55°42' E 012°36'0 0.0
2020-Aug-08 08:53N 55°42' E 012°36'0 0.0
2020-Aug-08 07:56N 55°42' E 012°36'21 7.2
2020-Aug-08 05:00N 56°03' E 012°39'1414.1
2020-Aug-08 04:00N 56°13' E 012°20'714.4
2020-Aug-08 03:30N 56°18' E 012°11'714.4
2020-Aug-08 03:00N 56°24' E 012°03'2814.0
2020-Aug-08 01:00N 56°50' E 011°49'1414.4
2020-Aug-08 00:01N 57°04' E 011°40'2814.2
2020-Aug-07 22:00N 57°30' E 011°19'2510.0
2020-Aug-07 19:30N 57°26' E 010°33'2814.1
2020-Aug-07 17:31N 57°53' E 010°47'1817.6
2020-Aug-07 16:31N 58°11' E 010°45'4216.7
2020-Aug-07 14:00N 58°52' E 010°41'1716.8
2020-Aug-07 13:00N 59°09' E 010°38'917.7
2020-Aug-07 12:31N 59°18' E 010°36'3316.3
2020-Aug-07 10:31N 59°51' E 010°36'510.7
2020-Aug-07 10:00N 59°54' E 010°45'4 1.1
2020-Aug-07 06:30N 59°52' E 010°38'2315.2
2020-Aug-07 05:00N 59°29' E 010°35'815.7
2020-Aug-07 04:30N 59°21' E 010°35'815.8
2020-Aug-07 04:00N 59°14' E 010°38'816.3
2020-Aug-07 03:30N 59°06' E 010°40'4317.2
2020-Aug-07 01:00N 58°23' E 010°51'2617.4
2020-Aug-06 23:30N 57°57' E 010°53'3416.8
2020-Aug-06 21:31N 57°25' E 010°37'7 4.6
2020-Aug-06 20:00N 57°26' E 010°49'10015.4
2020-Aug-06 13:30N 56°05' E 012°37'15 2.1
2020-Aug-06 06:00N 55°50' E 012°42'713.1
2020-Aug-06 05:31N 55°56' E 012°39'1313.4
2020-Aug-06 04:31N 56°08' E 012°29'715.0
2020-Aug-06 04:01N 56°13' E 012°18'2713.5
2020-Aug-06 02:01N 56°37' E 011°55'714.3
2020-Aug-06 01:31N 56°44' E 011°53'4414.6
2020-Aug-05 22:31N 57°24' E 011°24'2811.0
2020-Aug-05 20:00N 57°26' E 010°33'2 4.1
2020-Aug-05 19:30N 57°25' E 010°36'3215.9
2020-Aug-05 17:30N 57°56' E 010°47'5916.7
2020-Aug-05 14:00N 58°54' E 010°40'1716.7
2020-Aug-05 13:00N 59°11' E 010°38'816.5
2020-Aug-05 12:30N 59°19' E 010°35'3511.6
2020-Aug-05 09:28N 59°54' E 010°45'3 1.0
2020-Aug-05 06:31N 59°53' E 010°40'3115.3
2020-Aug-05 04:30N 59°22' E 010°35'7117.9
2020-Aug-05 00:30N 58°11' E 010°53'3618.3
2020-Aug-04 22:31N 57°35' E 010°48'12 8.0
2020-Aug-04 21:00N 57°26' E 010°33'1313.3
2020-Aug-04 20:01N 57°29' E 010°57'12013.3
2020-Aug-04 11:00N 55°42' E 012°36'0 0.0
2020-Aug-04 09:30N 55°42' E 012°36'0 0.0
2020-Aug-04 08:54N 55°42' E 012°36'0 0.0
2020-Aug-04 08:24N 55°42' E 012°36'21 6.2
2020-Aug-04 05:01N 56°03' E 012°39'1515.1
2020-Aug-04 04:00N 56°13' E 012°18'7714.0
2020-Aug-03 22:31N 57°24' E 011°24'35 7.1
2020-Aug-03 17:30N 57°54' E 010°48'1818.0
2020-Aug-03 16:30N 58°12' E 010°46'1717.2
2020-Aug-03 15:30N 58°29' E 010°44'4116.4
2020-Aug-03 13:00N 59°10' E 010°38'3216.2
2020-Aug-03 11:00N 59°42' E 010°35'1312.9
2020-Aug-03 10:00N 59°54' E 010°45'0 0.3
2020-Aug-03 09:30N 59°54' E 010°45'0 0.0
2020-Aug-03 09:00N 59°54' E 010°45'0 0.0
2020-Aug-03 07:00N 59°54' E 010°45'1711.3
2020-Aug-03 05:31N 59°38' E 010°38'1615.7
2020-Aug-03 04:31N 59°22' E 010°35'1716.9
2020-Aug-03 03:31N 59°05' E 010°41'6318.0
2020-Aug-03 00:01N 58°03' E 010°57'58 8.9
2020-Aug-02 17:30N 57°14' E 011°55'7218.0
2020-Aug-02 13:30N 56°05' E 012°36'917.8
2020-Aug-02 13:00N 55°57' E 012°43'917.3
2020-Aug-02 12:30N 55°49' E 012°44'8 3.9
2020-Aug-02 10:27N 55°42' E 012°36'0 0.0
2020-Aug-02 10:00N 55°42' E 012°36'2 0.5
2020-Aug-02 06:31N 55°43' E 012°39'1812.1
2020-Aug-02 05:00N 56°01' E 012°40'612.5
2020-Aug-02 04:31N 56°06' E 012°33'713.2
2020-Aug-02 04:00N 56°11' E 012°24'2013.7
2020-Aug-02 02:31N 56°26' E 011°59'914.2
2020-Aug-02 01:55N 56°34' E 011°56'5014.6
2020-Aug-01 22:30N 57°21' E 011°26'60 9.2
2020-Aug-01 16:01N 58°18' E 010°51'3417.0
2020-Aug-01 14:01N 58°52' E 010°43'4417.4
2020-Aug-01 11:31N 59°35' E 010°38'19 9.4
2020-Aug-01 09:28N 59°54' E 010°45'17 4.4
2020-Aug-01 05:30N 59°37' E 010°38'4016.2
2020-Aug-01 03:00N 58°57' E 010°42'816.7
2020-Aug-01 02:30N 58°48' E 010°44'3718.5
2020-Aug-01 00:30N 58°12' E 010°53'917.7
2020-Aug-01 00:00N 58°03' E 010°52'3915.4
2020-Jul-31 21:30N 57°26' E 010°34'4111.6
2020-Jul-31 18:00N 57°18' E 011°47'9916.5
2020-Jul-31 12:00N 55°42' E 012°36'0 0.1
2020-Jul-31 10:00N 55°42' E 012°36'2 0.6
2020-Jul-31 06:30N 55°43' E 012°39'612.7
2020-Jul-31 06:00N 55°49' E 012°42'1312.9
2020-Jul-31 05:01N 56°02' E 012°39'1514.5
2020-Jul-31 04:00N 56°12' E 012°21'4913.9
2020-Jul-31 00:28N 56°58' E 011°44'2915.0
2020-Jul-30 22:30N 57°25' E 011°24'1211.9
2020-Jul-30 21:30N 57°28' E 011°03'1514.5
2020-Jul-30 20:30N 57°24' E 010°37'1 1.1
2020-Jul-30 19:29N 57°25' E 010°37'10016.7
2020-Jul-30 13:31N 59°05' E 010°38'4816.0
2020-Jul-30 10:30N 59°53' E 010°40'2 1.5
2020-Jul-30 08:58N 59°54' E 010°45'0 0.0
2020-Jul-30 08:28N 59°54' E 010°45'12 4.8
2020-Jul-30 06:00N 59°43' E 010°35'  

Dump ship's entire track history